sensor_id;sensor_type;location;lat;lon;timestamp;P1;durP1;ratioP1;P2;durP2;ratioP2
67074;SDS011;53990;50.334;18.640;2023-05-23T00:01:38;13.20;;;8.50;;
67074;SDS011;53990;50.334;18.640;2023-05-23T00:04:05;10.90;;;8.20;;
67074;SDS011;53990;50.334;18.640;2023-05-23T00:06:32;12.20;;;8.20;;
67074;SDS011;53990;50.334;18.640;2023-05-23T00:09:00;12.30;;;8.50;;
67074;SDS011;53990;50.334;18.640;2023-05-23T00:11:27;13.30;;;8.60;;
67074;SDS011;53990;50.334;18.640;2023-05-23T00:13:55;12.20;;;8.50;;
67074;SDS011;53990;50.334;18.640;2023-05-23T00:16:23;11.00;;;8.00;;
67074;SDS011;53990;50.334;18.640;2023-05-23T00:18:50;21.00;;;8.90;;
67074;SDS011;53990;50.334;18.640;2023-05-23T00:21:17;15.20;;;9.00;;
67074;SDS011;53990;50.334;18.640;2023-05-23T00:23:44;12.20;;;8.90;;
67074;SDS011;53990;50.334;18.640;2023-05-23T00:26:11;11.80;;;9.30;;
67074;SDS011;53990;50.334;18.640;2023-05-23T00:28:39;12.10;;;8.90;;
67074;SDS011;53990;50.334;18.640;2023-05-23T00:31:06;14.10;;;8.60;;
67074;SDS011;53990;50.334;18.640;2023-05-23T00:33:32;11.90;;;9.10;;
67074;SDS011;53990;50.334;18.640;2023-05-23T00:35:59;15.30;;;9.70;;
67074;SDS011;53990;50.334;18.640;2023-05-23T00:38:26;12.20;;;9.20;;
67074;SDS011;53990;50.334;18.640;2023-05-23T00:40:54;11.40;;;9.40;;
67074;SDS011;53990;50.334;18.640;2023-05-23T00:43:21;13.80;;;9.20;;
67074;SDS011;53990;50.334;18.640;2023-05-23T00:45:48;13.70;;;9.20;;
67074;SDS011;53990;50.334;18.640;2023-05-23T00:48:15;12.80;;;9.60;;
67074;SDS011;53990;50.334;18.640;2023-05-23T00:50:42;14.60;;;9.50;;
67074;SDS011;53990;50.334;18.640;2023-05-23T00:53:10;14.50;;;9.50;;
67074;SDS011;53990;50.334;18.640;2023-05-23T00:55:38;14.50;;;9.80;;
67074;SDS011;53990;50.334;18.640;2023-05-23T00:58:05;15.60;;;10.50;;
67074;SDS011;53990;50.334;18.640;2023-05-23T01:00:32;15.70;;;10.40;;
67074;SDS011;53990;50.334;18.640;2023-05-23T01:03:00;16.20;;;10.10;;
67074;SDS011;53990;50.334;18.640;2023-05-23T01:05:27;13.70;;;10.40;;
67074;SDS011;53990;50.334;18.640;2023-05-23T01:07:54;14.50;;;9.90;;
67074;SDS011;53990;50.334;18.640;2023-05-23T01:10:22;15.60;;;10.30;;
67074;SDS011;53990;50.334;18.640;2023-05-23T01:15:47;14.50;;;10.10;;
67074;SDS011;53990;50.334;18.640;2023-05-23T01:18:17;17.20;;;10.50;;
67074;SDS011;53990;50.334;18.640;2023-05-23T01:28:27;14.30;;;10.70;;
67074;SDS011;53990;50.334;18.640;2023-05-23T01:30:56;16.40;;;10.20;;
67074;SDS011;53990;50.334;18.640;2023-05-23T01:33:24;17.30;;;10.30;;
67074;SDS011;53990;50.334;18.640;2023-05-23T01:35:51;15.50;;;10.60;;
67074;SDS011;53990;50.334;18.640;2023-05-23T01:38:18;13.50;;;10.50;;
67074;SDS011;53990;50.334;18.640;2023-05-23T01:40:45;16.30;;;10.60;;
67074;SDS011;53990;50.334;18.640;2023-05-23T01:43:12;17.50;;;11.40;;
67074;SDS011;53990;50.334;18.640;2023-05-23T01:45:39;16.80;;;11.10;;
67074;SDS011;53990;50.334;18.640;2023-05-23T01:48:06;17.30;;;11.30;;
67074;SDS011;53990;50.334;18.640;2023-05-23T01:50:35;16.20;;;10.90;;
67074;SDS011;53990;50.334;18.640;2023-05-23T01:53:02;17.10;;;11.30;;
67074;SDS011;53990;50.334;18.640;2023-05-23T01:55:29;20.60;;;11.80;;
67074;SDS011;53990;50.334;18.640;2023-05-23T01:57:56;16.40;;;11.10;;
67074;SDS011;53990;50.334;18.640;2023-05-23T02:00:24;16.80;;;11.30;;
67074;SDS011;53990;50.334;18.640;2023-05-23T02:02:51;14.60;;;10.80;;
67074;SDS011;53990;50.334;18.640;2023-05-23T02:05:18;14.80;;;10.50;;
67074;SDS011;53990;50.334;18.640;2023-05-23T02:07:45;16.30;;;11.40;;
67074;SDS011;53990;50.334;18.640;2023-05-23T02:10:12;18.00;;;11.20;;
67074;SDS011;53990;50.334;18.640;2023-05-23T02:12:39;18.70;;;11.80;;
67074;SDS011;53990;50.334;18.640;2023-05-23T02:15:06;20.80;;;12.00;;
67074;SDS011;53990;50.334;18.640;2023-05-23T02:17:34;17.00;;;11.80;;
67074;SDS011;53990;50.334;18.640;2023-05-23T02:20:01;16.80;;;10.90;;
67074;SDS011;53990;50.334;18.640;2023-05-23T02:22:28;16.90;;;11.60;;
67074;SDS011;53990;50.334;18.640;2023-05-23T02:24:55;16.10;;;10.70;;
67074;SDS011;53990;50.334;18.640;2023-05-23T02:27:22;15.40;;;11.30;;
67074;SDS011;53990;50.334;18.640;2023-05-23T02:29:49;16.10;;;11.60;;
67074;SDS011;53990;50.334;18.640;2023-05-23T02:32:16;18.80;;;11.60;;
67074;SDS011;53990;50.334;18.640;2023-05-23T02:34:43;23.10;;;12.30;;
67074;SDS011;53990;50.334;18.640;2023-05-23T02:37:12;17.00;;;11.90;;
67074;SDS011;53990;50.334;18.640;2023-05-23T02:39:39;20.70;;;11.90;;
67074;SDS011;53990;50.334;18.640;2023-05-23T02:42:06;18.90;;;12.40;;
67074;SDS011;53990;50.334;18.640;2023-05-23T02:44:33;17.80;;;12.10;;
67074;SDS011;53990;50.334;18.640;2023-05-23T02:47:00;19.40;;;12.50;;
67074;SDS011;53990;50.334;18.640;2023-05-23T02:49:27;18.50;;;12.60;;
67074;SDS011;53990;50.334;18.640;2023-05-23T02:51:54;19.30;;;12.20;;
67074;SDS011;53990;50.334;18.640;2023-05-23T02:54:21;18.80;;;11.70;;
67074;SDS011;53990;50.334;18.640;2023-05-23T02:56:48;18.20;;;12.20;;
67074;SDS011;53990;50.334;18.640;2023-05-23T02:59:18;19.90;;;13.30;;
67074;SDS011;53990;50.334;18.640;2023-05-23T03:01:45;21.00;;;12.30;;
67074;SDS011;53990;50.334;18.640;2023-05-23T03:04:11;24.10;;;13.20;;
67074;SDS011;53990;50.334;18.640;2023-05-23T03:06:39;17.10;;;12.00;;
67074;SDS011;53990;50.334;18.640;2023-05-23T03:09:08;18.60;;;12.30;;
67074;SDS011;53990;50.334;18.640;2023-05-23T03:11:35;17.80;;;11.90;;
67074;SDS011;53990;50.334;18.640;2023-05-23T03:14:02;19.60;;;12.00;;
67074;SDS011;53990;50.334;18.640;2023-05-23T03:16:29;17.20;;;11.90;;
67074;SDS011;53990;50.334;18.640;2023-05-23T03:18:56;17.40;;;11.00;;
67074;SDS011;53990;50.334;18.640;2023-05-23T03:21:24;19.00;;;12.00;;
67074;SDS011;53990;50.334;18.640;2023-05-23T03:23:51;22.70;;;13.10;;
67074;SDS011;53990;50.334;18.640;2023-05-23T03:26:18;18.60;;;12.60;;
67074;SDS011;53990;50.334;18.640;2023-05-23T03:28:45;18.70;;;12.90;;
67074;SDS011;53990;50.334;18.640;2023-05-23T03:31:12;18.20;;;11.90;;
67074;SDS011;53990;50.334;18.640;2023-05-23T03:33:39;16.60;;;11.40;;
67074;SDS011;53990;50.334;18.640;2023-05-23T03:36:06;18.40;;;11.60;;
67074;SDS011;53990;50.334;18.640;2023-05-23T03:38:33;15.80;;;11.40;;
67074;SDS011;53990;50.334;18.640;2023-05-23T03:41:00;17.00;;;11.50;;
67074;SDS011;53990;50.334;18.640;2023-05-23T03:43:27;16.80;;;11.60;;
67074;SDS011;53990;50.334;18.640;2023-05-23T03:45:54;16.10;;;12.10;;
67074;SDS011;53990;50.334;18.640;2023-05-23T03:48:21;17.20;;;11.80;;
67074;SDS011;53990;50.334;18.640;2023-05-23T03:50:48;15.60;;;11.40;;
67074;SDS011;53990;50.334;18.640;2023-05-23T03:53:15;17.10;;;12.30;;
67074;SDS011;53990;50.334;18.640;2023-05-23T03:55:42;20.10;;;11.70;;
67074;SDS011;53990;50.334;18.640;2023-05-23T03:58:09;19.10;;;12.30;;
67074;SDS011;53990;50.334;18.640;2023-05-23T04:00:36;18.60;;;12.80;;
67074;SDS011;53990;50.334;18.640;2023-05-23T04:03:03;18.70;;;12.20;;
67074;SDS011;53990;50.334;18.640;2023-05-23T04:05:30;16.60;;;11.80;;
67074;SDS011;53990;50.334;18.640;2023-05-23T04:07:57;21.50;;;11.90;;
67074;SDS011;53990;50.334;18.640;2023-05-23T04:10:26;18.20;;;11.90;;
67074;SDS011;53990;50.334;18.640;2023-05-23T04:12:53;19.00;;;12.10;;
67074;SDS011;53990;50.334;18.640;2023-05-23T04:15:20;17.30;;;11.20;;
67074;SDS011;53990;50.334;18.640;2023-05-23T04:17:47;19.00;;;12.10;;
67074;SDS011;53990;50.334;18.640;2023-05-23T04:20:14;18.80;;;12.00;;
67074;SDS011;53990;50.334;18.640;2023-05-23T04:22:41;18.90;;;12.50;;
67074;SDS011;53990;50.334;18.640;2023-05-23T04:25:08;13.70;;;11.20;;
67074;SDS011;53990;50.334;18.640;2023-05-23T04:27:35;16.60;;;11.40;;
67074;SDS011;53990;50.334;18.640;2023-05-23T04:30:06;18.60;;;12.50;;
67074;SDS011;53990;50.334;18.640;2023-05-23T04:32:34;19.10;;;12.90;;
67074;SDS011;53990;50.334;18.640;2023-05-23T04:35:02;18.70;;;12.70;;
67074;SDS011;53990;50.334;18.640;2023-05-23T04:37:30;16.90;;;12.30;;
67074;SDS011;53990;50.334;18.640;2023-05-23T04:39:58;16.30;;;12.70;;
67074;SDS011;53990;50.334;18.640;2023-05-23T04:42:25;22.40;;;13.00;;
67074;SDS011;53990;50.334;18.640;2023-05-23T04:44:53;20.20;;;13.30;;
67074;SDS011;53990;50.334;18.640;2023-05-23T04:47:23;19.50;;;13.60;;
67074;SDS011;53990;50.334;18.640;2023-05-23T04:49:54;24.40;;;14.20;;
67074;SDS011;53990;50.334;18.640;2023-05-23T04:52:22;19.50;;;14.50;;
67074;SDS011;53990;50.334;18.640;2023-05-23T04:54:49;23.00;;;14.30;;
67074;SDS011;53990;50.334;18.640;2023-05-23T04:57:16;20.00;;;13.70;;
67074;SDS011;53990;50.334;18.640;2023-05-23T04:59:43;19.10;;;12.80;;
67074;SDS011;53990;50.334;18.640;2023-05-23T05:02:10;20.30;;;13.80;;
67074;SDS011;53990;50.334;18.640;2023-05-23T05:04:38;22.90;;;15.00;;
67074;SDS011;53990;50.334;18.640;2023-05-23T05:07:05;19.40;;;14.90;;
67074;SDS011;53990;50.334;18.640;2023-05-23T05:09:32;23.00;;;14.60;;
67074;SDS011;53990;50.334;18.640;2023-05-23T05:11:59;24.40;;;15.80;;
67074;SDS011;53990;50.334;18.640;2023-05-23T05:14:26;23.00;;;15.00;;
67074;SDS011;53990;50.334;18.640;2023-05-23T05:16:53;23.40;;;14.90;;
67074;SDS011;53990;50.334;18.640;2023-05-23T05:19:20;21.40;;;14.20;;
67074;SDS011;53990;50.334;18.640;2023-05-23T05:21:47;22.10;;;14.00;;
67074;SDS011;53990;50.334;18.640;2023-05-23T05:24:14;21.60;;;13.90;;
67074;SDS011;53990;50.334;18.640;2023-05-23T05:26:41;19.30;;;13.70;;
67074;SDS011;53990;50.334;18.640;2023-05-23T05:29:08;20.90;;;14.00;;
67074;SDS011;53990;50.334;18.640;2023-05-23T05:31:35;19.00;;;13.40;;
67074;SDS011;53990;50.334;18.640;2023-05-23T05:34:03;16.90;;;12.70;;
67074;SDS011;53990;50.334;18.640;2023-05-23T05:36:29;18.50;;;12.80;;
67074;SDS011;53990;50.334;18.640;2023-05-23T05:38:58;20.50;;;14.00;;
67074;SDS011;53990;50.334;18.640;2023-05-23T05:41:24;19.90;;;12.80;;
67074;SDS011;53990;50.334;18.640;2023-05-23T05:43:52;20.10;;;13.60;;
67074;SDS011;53990;50.334;18.640;2023-05-23T05:46:19;20.80;;;13.30;;
67074;SDS011;53990;50.334;18.640;2023-05-23T05:48:45;19.30;;;13.80;;
67074;SDS011;53990;50.334;18.640;2023-05-23T05:51:13;20.20;;;14.60;;
67074;SDS011;53990;50.334;18.640;2023-05-23T05:53:39;20.00;;;14.90;;
67074;SDS011;53990;50.334;18.640;2023-05-23T05:56:06;21.20;;;14.40;;
67074;SDS011;53990;50.334;18.640;2023-05-23T05:58:34;20.10;;;14.30;;
67074;SDS011;53990;50.334;18.640;2023-05-23T06:01:01;23.50;;;15.90;;
67074;SDS011;53990;50.334;18.640;2023-05-23T06:03:27;23.90;;;14.90;;
67074;SDS011;53990;50.334;18.640;2023-05-23T06:05:54;23.40;;;14.90;;
67074;SDS011;53990;50.334;18.640;2023-05-23T06:08:21;20.70;;;14.10;;
67074;SDS011;53990;50.334;18.640;2023-05-23T06:10:48;20.10;;;14.10;;
67074;SDS011;53990;50.334;18.640;2023-05-23T06:13:15;21.90;;;13.70;;
67074;SDS011;53990;50.334;18.640;2023-05-23T06:15:42;19.60;;;13.50;;
67074;SDS011;53990;50.334;18.640;2023-05-23T06:18:09;20.90;;;13.50;;
67074;SDS011;53990;50.334;18.640;2023-05-23T06:20:37;19.10;;;14.00;;
67074;SDS011;53990;50.334;18.640;2023-05-23T06:23:03;20.30;;;13.90;;
67074;SDS011;53990;50.334;18.640;2023-05-23T06:25:31;18.50;;;14.40;;
67074;SDS011;53990;50.334;18.640;2023-05-23T06:27:57;22.30;;;14.80;;
67074;SDS011;53990;50.334;18.640;2023-05-23T06:30:25;29.50;;;21.20;;
67074;SDS011;53990;50.334;18.640;2023-05-23T06:32:51;20.30;;;14.90;;
67074;SDS011;53990;50.334;18.640;2023-05-23T06:35:18;20.70;;;13.90;;
67074;SDS011;53990;50.334;18.640;2023-05-23T06:37:45;20.40;;;15.00;;
67074;SDS011;53990;50.334;18.640;2023-05-23T06:40:12;21.40;;;15.00;;
67074;SDS011;53990;50.334;18.640;2023-05-23T06:42:41;19.80;;;14.50;;
67074;SDS011;53990;50.334;18.640;2023-05-23T06:45:08;22.40;;;15.60;;
67074;SDS011;53990;50.334;18.640;2023-05-23T06:47:35;23.40;;;16.70;;
67074;SDS011;53990;50.334;18.640;2023-05-23T06:50:02;23.10;;;15.50;;
67074;SDS011;53990;50.334;18.640;2023-05-23T06:52:29;21.90;;;15.10;;
67074;SDS011;53990;50.334;18.640;2023-05-23T06:54:56;21.30;;;14.50;;
67074;SDS011;53990;50.334;18.640;2023-05-23T06:57:22;19.80;;;14.10;;
67074;SDS011;53990;50.334;18.640;2023-05-23T06:59:49;24.70;;;15.70;;
67074;SDS011;53990;50.334;18.640;2023-05-23T07:02:16;20.40;;;14.20;;
67074;SDS011;53990;50.334;18.640;2023-05-23T07:04:43;20.00;;;14.20;;
67074;SDS011;53990;50.334;18.640;2023-05-23T07:07:10;19.90;;;13.30;;
67074;SDS011;53990;50.334;18.640;2023-05-23T07:09:37;20.90;;;14.50;;
67074;SDS011;53990;50.334;18.640;2023-05-23T07:12:05;20.40;;;14.30;;
67074;SDS011;53990;50.334;18.640;2023-05-23T07:14:32;19.50;;;13.70;;
67074;SDS011;53990;50.334;18.640;2023-05-23T07:17:01;16.30;;;13.00;;
67074;SDS011;53990;50.334;18.640;2023-05-23T07:19:27;18.60;;;13.10;;
67074;SDS011;53990;50.334;18.640;2023-05-23T07:21:54;17.90;;;12.20;;
67074;SDS011;53990;50.334;18.640;2023-05-23T07:24:21;17.30;;;12.60;;
67074;SDS011;53990;50.334;18.640;2023-05-23T07:26:48;19.40;;;12.10;;
67074;SDS011;53990;50.334;18.640;2023-05-23T07:29:17;20.80;;;12.00;;
67074;SDS011;53990;50.334;18.640;2023-05-23T07:31:46;18.80;;;12.20;;
67074;SDS011;53990;50.334;18.640;2023-05-23T07:34:12;23.00;;;15.30;;
67074;SDS011;53990;50.334;18.640;2023-05-23T07:36:39;17.20;;;11.70;;
67074;SDS011;53990;50.334;18.640;2023-05-23T07:39:08;18.90;;;12.20;;
67074;SDS011;53990;50.334;18.640;2023-05-23T07:41:34;20.60;;;11.30;;
67074;SDS011;53990;50.334;18.640;2023-05-23T07:44:01;17.40;;;11.30;;
67074;SDS011;53990;50.334;18.640;2023-05-23T07:46:28;15.40;;;11.10;;
67074;SDS011;53990;50.334;18.640;2023-05-23T07:48:55;15.50;;;11.40;;
67074;SDS011;53990;50.334;18.640;2023-05-23T07:51:22;19.40;;;11.10;;
67074;SDS011;53990;50.334;18.640;2023-05-23T07:53:49;14.20;;;11.20;;
67074;SDS011;53990;50.334;18.640;2023-05-23T07:56:16;19.70;;;11.20;;
67074;SDS011;53990;50.334;18.640;2023-05-23T07:58:43;14.00;;;10.50;;
67074;SDS011;53990;50.334;18.640;2023-05-23T08:01:09;17.90;;;10.90;;
67074;SDS011;53990;50.334;18.640;2023-05-23T08:03:36;18.10;;;10.80;;
67074;SDS011;53990;50.334;18.640;2023-05-23T08:06:03;15.00;;;10.90;;
67074;SDS011;53990;50.334;18.640;2023-05-23T08:08:30;16.40;;;10.10;;
67074;SDS011;53990;50.334;18.640;2023-05-23T08:10:57;18.00;;;10.90;;
67074;SDS011;53990;50.334;18.640;2023-05-23T08:13:24;16.00;;;10.40;;
67074;SDS011;53990;50.334;18.640;2023-05-23T08:15:51;17.70;;;11.40;;
67074;SDS011;53990;50.334;18.640;2023-05-23T08:18:17;13.30;;;10.30;;
67074;SDS011;53990;50.334;18.640;2023-05-23T08:20:44;16.90;;;10.10;;
67074;SDS011;53990;50.334;18.640;2023-05-23T08:23:11;16.70;;;10.30;;
67074;SDS011;53990;50.334;18.640;2023-05-23T08:25:39;19.70;;;13.70;;
67074;SDS011;53990;50.334;18.640;2023-05-23T08:28:09;16.90;;;9.60;;
67074;SDS011;53990;50.334;18.640;2023-05-23T08:30:36;16.50;;;10.10;;
67074;SDS011;53990;50.334;18.640;2023-05-23T08:33:03;15.10;;;9.80;;
67074;SDS011;53990;50.334;18.640;2023-05-23T08:35:30;13.90;;;10.40;;
67074;SDS011;53990;50.334;18.640;2023-05-23T08:38:04;13.40;;;10.40;;
67074;SDS011;53990;50.334;18.640;2023-05-23T08:40:31;18.20;;;10.50;;
67074;SDS011;53990;50.334;18.640;2023-05-23T08:42:58;15.40;;;10.50;;
67074;SDS011;53990;50.334;18.640;2023-05-23T08:45:27;12.10;;;9.40;;
67074;SDS011;53990;50.334;18.640;2023-05-23T08:47:59;15.70;;;10.00;;
67074;SDS011;53990;50.334;18.640;2023-05-23T08:50:27;13.80;;;9.90;;
67074;SDS011;53990;50.334;18.640;2023-05-23T08:52:56;16.70;;;9.10;;
67074;SDS011;53990;50.334;18.640;2023-05-23T08:55:25;15.80;;;9.00;;
67074;SDS011;53990;50.334;18.640;2023-05-23T08:57:59;15.50;;;8.80;;
67074;SDS011;53990;50.334;18.640;2023-05-23T09:00:26;12.90;;;7.90;;
67074;SDS011;53990;50.334;18.640;2023-05-23T09:02:54;13.30;;;8.70;;
67074;SDS011;53990;50.334;18.640;2023-05-23T09:05:21;13.90;;;8.70;;
67074;SDS011;53990;50.334;18.640;2023-05-23T09:07:48;14.40;;;8.70;;
67074;SDS011;53990;50.334;18.640;2023-05-23T09:10:17;16.80;;;9.00;;
67074;SDS011;53990;50.334;18.640;2023-05-23T09:12:47;15.20;;;8.90;;
67074;SDS011;53990;50.334;18.640;2023-05-23T09:15:14;12.40;;;8.10;;
67074;SDS011;53990;50.334;18.640;2023-05-23T09:17:43;13.60;;;8.00;;
67074;SDS011;53990;50.334;18.640;2023-05-23T09:20:11;11.70;;;7.50;;
67074;SDS011;53990;50.334;18.640;2023-05-23T09:22:40;11.80;;;8.30;;
67074;SDS011;53990;50.334;18.640;2023-05-23T09:25:07;12.90;;;8.40;;
67074;SDS011;53990;50.334;18.640;2023-05-23T09:27:34;15.20;;;6.90;;
67074;SDS011;53990;50.334;18.640;2023-05-23T09:30:11;10.40;;;7.30;;
67074;SDS011;53990;50.334;18.640;2023-05-23T09:32:38;9.40;;;6.70;;
67074;SDS011;53990;50.334;18.640;2023-05-23T09:35:06;14.00;;;7.20;;
67074;SDS011;53990;50.334;18.640;2023-05-23T09:37:35;10.30;;;7.30;;
67074;SDS011;53990;50.334;18.640;2023-05-23T09:40:07;13.70;;;8.20;;
67074;SDS011;53990;50.334;18.640;2023-05-23T09:42:42;16.10;;;7.90;;
67074;SDS011;53990;50.334;18.640;2023-05-23T09:45:10;11.50;;;7.70;;
67074;SDS011;53990;50.334;18.640;2023-05-23T09:47:37;10.20;;;7.70;;
67074;SDS011;53990;50.334;18.640;2023-05-23T09:50:05;13.70;;;7.80;;
67074;SDS011;53990;50.334;18.640;2023-05-23T09:52:37;12.70;;;7.10;;
67074;SDS011;53990;50.334;18.640;2023-05-23T09:55:05;13.60;;;7.90;;
67074;SDS011;53990;50.334;18.640;2023-05-23T09:57:39;12.10;;;7.10;;
67074;SDS011;53990;50.334;18.640;2023-05-23T10:00:08;12.40;;;7.70;;
67074;SDS011;53990;50.334;18.640;2023-05-23T10:05:07;12.20;;;7.70;;
67074;SDS011;53990;50.334;18.640;2023-05-23T10:07:35;12.60;;;7.50;;
67074;SDS011;53990;50.334;18.640;2023-05-23T10:10:03;13.20;;;7.40;;
67074;SDS011;53990;50.334;18.640;2023-05-23T10:12:39;12.70;;;7.60;;
67074;SDS011;53990;50.334;18.640;2023-05-23T10:17:39;10.20;;;6.60;;
67074;SDS011;53990;50.334;18.640;2023-05-23T10:20:13;12.30;;;6.60;;
67074;SDS011;53990;50.334;18.640;2023-05-23T10:22:41;12.80;;;6.10;;
67074;SDS011;53990;50.334;18.640;2023-05-23T10:25:09;9.20;;;7.00;;
67074;SDS011;53990;50.334;18.640;2023-05-23T10:27:38;11.60;;;7.10;;
67074;SDS011;53990;50.334;18.640;2023-05-23T10:30:06;11.50;;;7.70;;
67074;SDS011;53990;50.334;18.640;2023-05-23T10:32:33;9.80;;;6.40;;
67074;SDS011;53990;50.334;18.640;2023-05-23T10:45:46;9.10;;;5.40;;
67074;SDS011;53990;50.334;18.640;2023-05-23T10:48:42;10.90;;;6.30;;
67074;SDS011;53990;50.334;18.640;2023-05-23T10:51:12;9.30;;;5.80;;
67074;SDS011;53990;50.334;18.640;2023-05-23T10:53:44;10.00;;;5.80;;
67074;SDS011;53990;50.334;18.640;2023-05-23T10:56:21;8.70;;;6.30;;
67074;SDS011;53990;50.334;18.640;2023-05-23T10:58:53;11.70;;;6.50;;
67074;SDS011;53990;50.334;18.640;2023-05-23T11:01:21;9.30;;;6.40;;
67074;SDS011;53990;50.334;18.640;2023-05-23T11:09:07;10.40;;;5.60;;
67074;SDS011;53990;50.334;18.640;2023-05-23T11:11:54;8.90;;;5.90;;
67074;SDS011;53990;50.334;18.640;2023-05-23T11:16:59;7.40;;;5.90;;
67074;SDS011;53990;50.334;18.640;2023-05-23T11:19:27;9.70;;;6.80;;
67074;SDS011;53990;50.334;18.640;2023-05-23T11:22:01;12.10;;;6.90;;
67074;SDS011;53990;50.334;18.640;2023-05-23T11:24:51;9.10;;;6.10;;
67074;SDS011;53990;50.334;18.640;2023-05-23T11:27:30;10.50;;;5.90;;
67074;SDS011;53990;50.334;18.640;2023-05-23T11:30:02;10.30;;;5.70;;
67074;SDS011;53990;50.334;18.640;2023-05-23T11:32:30;10.90;;;6.30;;
67074;SDS011;53990;50.334;18.640;2023-05-23T11:35:05;14.70;;;6.40;;
67074;SDS011;53990;50.334;18.640;2023-05-23T11:37:33;14.50;;;9.20;;
67074;SDS011;53990;50.334;18.640;2023-05-23T11:42:55;19.70;;;11.60;;
67074;SDS011;53990;50.334;18.640;2023-05-23T11:45:23;19.40;;;11.80;;
67074;SDS011;53990;50.334;18.640;2023-05-23T11:47:50;19.20;;;12.90;;
67074;SDS011;53990;50.334;18.640;2023-05-23T11:50:17;17.90;;;12.50;;
67074;SDS011;53990;50.334;18.640;2023-05-23T11:52:46;18.20;;;12.80;;
67074;SDS011;53990;50.334;18.640;2023-05-23T11:55:19;21.00;;;13.40;;
67074;SDS011;53990;50.334;18.640;2023-05-23T11:57:47;23.30;;;13.30;;
67074;SDS011;53990;50.334;18.640;2023-05-23T12:00:15;19.40;;;13.90;;
67074;SDS011;53990;50.334;18.640;2023-05-23T12:02:43;20.20;;;14.90;;
67074;SDS011;53990;50.334;18.640;2023-05-23T12:05:14;21.60;;;15.60;;
67074;SDS011;53990;50.334;18.640;2023-05-23T12:07:49;22.40;;;16.00;;
67074;SDS011;53990;50.334;18.640;2023-05-23T12:10:17;24.80;;;17.00;;
67074;SDS011;53990;50.334;18.640;2023-05-23T12:12:45;24.80;;;16.10;;
67074;SDS011;53990;50.334;18.640;2023-05-23T12:15:12;22.80;;;16.70;;
67074;SDS011;53990;50.334;18.640;2023-05-23T12:17:45;24.90;;;17.50;;
67074;SDS011;53990;50.334;18.640;2023-05-23T12:20:12;21.20;;;17.40;;
67074;SDS011;53990;50.334;18.640;2023-05-23T12:22:40;22.80;;;16.40;;
67074;SDS011;53990;50.334;18.640;2023-05-23T12:25:08;24.50;;;17.10;;
67074;SDS011;53990;50.334;18.640;2023-05-23T12:27:39;22.10;;;17.10;;
67074;SDS011;53990;50.334;18.640;2023-05-23T12:30:13;26.20;;;16.60;;
67074;SDS011;53990;50.334;18.640;2023-05-23T12:32:41;21.00;;;16.10;;
67074;SDS011;53990;50.334;18.640;2023-05-23T12:35:09;22.30;;;15.90;;
67074;SDS011;53990;50.334;18.640;2023-05-23T12:37:45;17.90;;;15.10;;
67074;SDS011;53990;50.334;18.640;2023-05-23T12:40:16;16.30;;;14.60;;
67074;SDS011;53990;50.334;18.640;2023-05-23T12:47:55;18.50;;;16.40;;
67074;SDS011;53990;50.334;18.640;2023-05-23T12:50:22;19.10;;;15.90;;
67074;SDS011;53990;50.334;18.640;2023-05-23T12:52:49;19.60;;;13.80;;
67074;SDS011;53990;50.334;18.640;2023-05-23T12:55:15;14.50;;;10.20;;
67074;SDS011;53990;50.334;18.640;2023-05-23T12:57:42;14.10;;;8.30;;
67074;SDS011;53990;50.334;18.640;2023-05-23T13:00:10;11.50;;;7.20;;
67074;SDS011;53990;50.334;18.640;2023-05-23T13:02:37;9.00;;;6.40;;
67074;SDS011;53990;50.334;18.640;2023-05-23T13:05:05;11.00;;;6.90;;
67074;SDS011;53990;50.334;18.640;2023-05-23T13:07:32;9.60;;;6.70;;
67074;SDS011;53990;50.334;18.640;2023-05-23T13:10:00;10.90;;;7.10;;
67074;SDS011;53990;50.334;18.640;2023-05-23T13:12:27;11.10;;;6.40;;
67074;SDS011;53990;50.334;18.640;2023-05-23T13:14:54;11.10;;;6.70;;
67074;SDS011;53990;50.334;18.640;2023-05-23T13:17:21;7.90;;;5.80;;
67074;SDS011;53990;50.334;18.640;2023-05-23T13:19:48;8.80;;;5.90;;
67074;SDS011;53990;50.334;18.640;2023-05-23T13:22:14;8.70;;;5.60;;
67074;SDS011;53990;50.334;18.640;2023-05-23T13:24:41;6.50;;;5.40;;
67074;SDS011;53990;50.334;18.640;2023-05-23T13:27:09;9.30;;;6.00;;
67074;SDS011;53990;50.334;18.640;2023-05-23T13:29:36;8.70;;;6.40;;
67074;SDS011;53990;50.334;18.640;2023-05-23T13:32:03;9.10;;;5.50;;
67074;SDS011;53990;50.334;18.640;2023-05-23T13:34:30;9.70;;;6.30;;
67074;SDS011;53990;50.334;18.640;2023-05-23T13:36:57;9.60;;;6.10;;
67074;SDS011;53990;50.334;18.640;2023-05-23T13:39:26;10.10;;;5.80;;
67074;SDS011;53990;50.334;18.640;2023-05-23T13:41:53;8.10;;;5.80;;
67074;SDS011;53990;50.334;18.640;2023-05-23T13:44:20;8.40;;;5.80;;
67074;SDS011;53990;50.334;18.640;2023-05-23T13:46:46;7.40;;;6.00;;
67074;SDS011;53990;50.334;18.640;2023-05-23T13:49:13;9.30;;;5.80;;
67074;SDS011;53990;50.334;18.640;2023-05-23T13:51:40;9.50;;;6.70;;
67074;SDS011;53990;50.334;18.640;2023-05-23T13:54:08;9.10;;;6.70;;
67074;SDS011;53990;50.334;18.640;2023-05-23T13:56:35;10.00;;;7.50;;
67074;SDS011;53990;50.334;18.640;2023-05-23T13:59:05;8.90;;;7.40;;
67074;SDS011;53990;50.334;18.640;2023-05-23T14:01:31;9.40;;;6.70;;
67074;SDS011;53990;50.334;18.640;2023-05-23T14:03:58;10.70;;;7.70;;
67074;SDS011;53990;50.334;18.640;2023-05-23T14:06:25;10.80;;;7.90;;
67074;SDS011;53990;50.334;18.640;2023-05-23T14:08:52;10.70;;;7.80;;
67074;SDS011;53990;50.334;18.640;2023-05-23T14:11:18;9.30;;;7.80;;
67074;SDS011;53990;50.334;18.640;2023-05-23T14:13:45;9.20;;;7.90;;
67074;SDS011;53990;50.334;18.640;2023-05-23T14:16:12;12.10;;;8.00;;
67074;SDS011;53990;50.334;18.640;2023-05-23T14:18:39;10.10;;;8.60;;
67074;SDS011;53990;50.334;18.640;2023-05-23T14:21:06;11.20;;;8.30;;
67074;SDS011;53990;50.334;18.640;2023-05-23T14:23:32;10.90;;;9.40;;
67074;SDS011;53990;50.334;18.640;2023-05-23T14:25:59;11.10;;;9.40;;
67074;SDS011;53990;50.334;18.640;2023-05-23T14:28:26;12.10;;;9.60;;
67074;SDS011;53990;50.334;18.640;2023-05-23T14:30:53;11.60;;;9.50;;
67074;SDS011;53990;50.334;18.640;2023-05-23T14:33:21;11.90;;;10.20;;
67074;SDS011;53990;50.334;18.640;2023-05-23T14:35:48;11.60;;;9.60;;
67074;SDS011;53990;50.334;18.640;2023-05-23T14:38:14;13.50;;;9.20;;
67074;SDS011;53990;50.334;18.640;2023-05-23T14:40:41;12.90;;;10.90;;
67074;SDS011;53990;50.334;18.640;2023-05-23T14:43:08;15.50;;;10.00;;
67074;SDS011;53990;50.334;18.640;2023-05-23T14:45:35;12.20;;;10.30;;
67074;SDS011;53990;50.334;18.640;2023-05-23T14:48:03;11.90;;;9.80;;
67074;SDS011;53990;50.334;18.640;2023-05-23T14:50:30;11.60;;;9.60;;
67074;SDS011;53990;50.334;18.640;2023-05-23T14:52:57;12.20;;;10.00;;
67074;SDS011;53990;50.334;18.640;2023-05-23T14:55:25;11.50;;;10.30;;
67074;SDS011;53990;50.334;18.640;2023-05-23T14:57:51;11.90;;;9.80;;
67074;SDS011;53990;50.334;18.640;2023-05-23T15:00:18;11.80;;;10.00;;